Time,TemperatureF,DewpointF,PressureIn,WindDirection,WindDirectionDegrees,WindSpeedMPH,WindSpeedGustMPH,Humidity,HourlyPrecipIn,Conditions,Clouds,dailyrainin,SoftwareType,DateUTC
2013-07-24 00:08:00,78.3,59.7,29.70,SSE,157,0.0,-999.0,53,-99.99,,,0.00,Acu-Link.com,2013-07-24 05:08:00,
2013-07-24 00:23:00,78.1,55.6,29.69,SSW,202,1.1,-999.0,46,-99.99,,,0.00,Acu-Link.com,2013-07-24 05:23:00,
2013-07-24 00:38:00,78.1,53.1,29.69,SSE,157,1.7,-999.0,42,-99.99,,,0.00,Acu-Link.com,2013-07-24 05:38:00,
2013-07-24 00:53:00,78.1,54.4,29.68,SSE,157,0.0,-999.0,44,-99.99,,,0.00,Acu-Link.com,2013-07-24 05:53:00,
2013-07-24 01:08:00,77.7,52.1,29.69,ENE,67,0.0,-999.0,41,-99.99,,,0.00,Acu-Link.com,2013-07-24 06:08:00,
2013-07-24 01:23:00,77.7,43.8,29.69,West,270,2.7,-999.0,30,-99.99,,,0.00,Acu-Link.com,2013-07-24 06:23:00,
2013-07-24 01:39:00,77.5,44.5,29.70,NW,315,0.0,-999.0,31,-99.99,,,0.00,Acu-Link.com,2013-07-24 06:39:00,
2013-07-24 01:54:00,77.4,33.2,29.70,NE,45,0.0,-999.0,20,-99.99,,,0.00,Acu-Link.com,2013-07-24 06:54:00,
2013-07-24 02:09:00,77.2,22.6,29.69,East,90,0.0,-999.0,13,-99.99,,,0.00,Acu-Link.com,2013-07-24 07:09:00,
2013-07-24 02:24:00,76.6,-30.9,29.69,WNW,292,0.0,-999.0,0,-99.99,,,0.00,Acu-Link.com,2013-07-24 07:24:00,
2013-07-24 02:39:00,76.5,-30.9,29.69,NE,45,0.0,-999.0,0,-99.99,,,0.00,Acu-Link.com,2013-07-24 07:39:00,
2013-07-24 02:54:00,76.5,75.9,29.69,East,90,0.0,-999.0,98,-99.99,,,0.00,Acu-Link.com,2013-07-24 07:54:00,
2013-07-24 03:10:00,76.1,75.5,29.69,WNW,292,0.0,-999.0,98,-99.99,,,0.00,Acu-Link.com,2013-07-24 08:10:00,
2013-07-24 03:25:00,76.1,36.7,29.69,West,270,0.0,-999.0,24,-99.99,,,0.00,Acu-Link.com,2013-07-24 08:25:00,
2013-07-24 03:40:00,75.7,24.8,29.69,NW,315,0.0,-999.0,15,-99.99,,,0.00,Acu-Link.com,2013-07-24 08:40:00,
2013-07-24 03:55:00,75.6,31.7,29.69,WNW,292,0.0,-999.0,20,-99.99,,,0.00,Acu-Link.com,2013-07-24 08:55:00,
2013-07-24 04:10:00,75.4,12.7,29.69,NNE,22,0.0,-999.0,9,-99.99,,,0.00,Acu-Link.com,2013-07-24 09:10:00,
2013-07-24 04:25:00,75.0,25.8,29.68,WSW,247,0.0,-999.0,16,-99.99,,,0.00,Acu-Link.com,2013-07-24 09:25:00,
2013-07-24 04:41:00,74.7,12.1,29.68,East,90,0.0,-999.0,9,-99.99,,,0.00,Acu-Link.com,2013-07-24 09:41:00,
2013-07-24 04:56:00,73.9,-19.7,29.69,East,90,0.0,-999.0,2,-99.99,,,0.00,Acu-Link.com,2013-07-24 09:56:00,
2013-07-24 05:11:00,73.8,-6.0,29.69,East,90,0.0,-999.0,4,-99.99,,,0.00,Acu-Link.com,2013-07-24 10:11:00,
2013-07-24 05:41:00,73.4,72.8,29.70,East,90,0.0,-999.0,98,-99.99,,,0.00,Acu-Link.com,2013-07-24 10:41:00,
2013-07-24 05:56:00,73.2,72.6,29.70,East,90,0.0,-999.0,98,-99.99,,,0.00,Acu-Link.com,2013-07-24 10:56:00,
2013-07-24 06:11:00,73.2,72.6,29.69,East,90,0.0,-999.0,98,-99.99,,,0.00,Acu-Link.com,2013-07-24 11:11:00,
2013-07-24 06:27:00,73.2,72.6,29.70,East,90,0.0,-999.0,98,-99.99,,,0.00,Acu-Link.com,2013-07-24 11:27:00,
2013-07-24 06:42:00,73.2,17.6,29.70,East,90,0.0,-999.0,12,-99.99,,,0.00,Acu-Link.com,2013-07-24 11:42:00,
2013-07-24 06:57:00,74.5,36.4,29.70,East,90,0.0,-999.0,25,-99.99,,,0.00,Acu-Link.com,2013-07-24 11:57:00,
2013-07-24 07:12:00,74.7,39.4,29.71,SSE,157,0.0,-999.0,28,-99.99,,,0.00,Acu-Link.com,2013-07-24 12:12:00,
2013-07-24 07:27:00,75.4,45.1,29.71,South,180,0.0,-999.0,34,-99.99,,,0.00,Acu-Link.com,2013-07-24 12:27:00,
2013-07-24 07:42:00,76.5,62.5,29.72,SW,225,0.0,-999.0,62,-99.99,,,0.00,Acu-Link.com,2013-07-24 12:42:00,
2013-07-24 07:58:00,77.4,66.8,29.72,WNW,292,0.0,-999.0,70,-99.99,,,0.00,Acu-Link.com,2013-07-24 12:58:00,
2013-07-24 08:13:00,79.2,70.2,29.73,WSW,247,0.0,-999.0,74,-99.99,,,0.00,Acu-Link.com,2013-07-24 13:13:00,
2013-07-24 08:28:00,79.7,70.7,29.73,SSE,157,0.0,-999.0,74,-99.99,,,0.00,Acu-Link.com,2013-07-24 13:28:00,
2013-07-24 08:43:00,80.2,71.1,29.73,WNW,292,0.0,-999.0,74,-99.99,,,0.00,Acu-Link.com,2013-07-24 13:43:00,
2013-07-24 08:58:00,80.4,70.9,29.74,NW,315,1.7,-999.0,73,-99.99,,,0.00,Acu-Link.com,2013-07-24 13:58:00,
2013-07-24 09:13:00,81.1,71.6,29.73,NNW,337,2.2,-999.0,73,-99.99,,,0.00,Acu-Link.com,2013-07-24 14:13:00,
2013-07-24 09:28:00,81.7,71.8,29.73,NNW,337,2.7,-999.0,72,-99.99,,,0.00,Acu-Link.com,2013-07-24 14:28:00,
2013-07-24 09:43:00,84.7,72.9,29.73,WNW,292,2.7,-999.0,68,-99.99,,,0.00,Acu-Link.com,2013-07-24 14:43:00,
2013-07-24 09:58:00,82.6,72.2,29.74,East,90,1.1,-999.0,71,-99.99,,,0.00,Acu-Link.com,2013-07-24 14:58:00,
2013-07-24 10:13:00,84.0,73.1,29.73,SSE,157,1.7,-999.0,70,-99.99,,,0.00,Acu-Link.com,2013-07-24 15:13:00,
2013-07-24 10:29:00,84.0,73.1,29.73,West,270,1.1,-999.0,70,-99.99,,,0.00,Acu-Link.com,2013-07-24 15:29:00,
2013-07-24 10:44:00,86.0,73.7,29.73,NNE,22,2.2,-999.0,67,-99.99,,,0.00,Acu-Link.com,2013-07-24 15:44:00,
2013-07-24 10:59:00,84.9,73.1,29.74,East,90,0.0,-999.0,68,-99.99,,,0.00,Acu-Link.com,2013-07-24 15:59:00,
2013-07-24 11:15:00,84.2,72.9,29.73,NNE,22,0.0,-999.0,69,-99.99,,,0.00,Acu-Link.com,2013-07-24 16:15:00,
2013-07-24 11:30:00,85.5,72.8,29.75,NW,315,0.0,-999.0,66,-99.99,,,0.00,Acu-Link.com,2013-07-24 16:30:00,
2013-07-24 11:45:00,85.5,72.8,29.74,West,270,2.2,-999.0,66,-99.99,,,0.00,Acu-Link.com,2013-07-24 16:45:00,
2013-07-24 12:00:00,86.2,73.5,29.73,NE,45,3.7,-999.0,66,-99.99,,,0.00,Acu-Link.com,2013-07-24 17:00:00,
2013-07-24 12:15:00,85.5,72.8,29.73,NW,315,3.7,-999.0,66,-99.99,,,0.00,Acu-Link.com,2013-07-24 17:15:00,
2013-07-24 12:30:00,85.5,73.3,29.74,NNE,22,1.7,-999.0,67,-99.99,,,0.00,Acu-Link.com,2013-07-24 17:30:00,
2013-07-24 12:46:00,85.6,72.5,29.75,SW,225,4.2,-999.0,65,-99.99,,,0.00,Acu-Link.com,2013-07-24 17:46:00,
2013-07-24 13:01:00,84.0,72.3,29.75,WNW,292,3.7,-999.0,68,-99.99,,,0.00,Acu-Link.com,2013-07-24 18:01:00,
2013-07-24 13:16:00,83.8,73.4,29.74,NNE,22,3.7,-999.0,71,-99.99,,,0.00,Acu-Link.com,2013-07-24 18:16:00,
2013-07-24 13:46:00,82.4,72.4,29.74,ESE,112,2.2,-999.0,72,-99.99,,,0.00,Acu-Link.com,2013-07-24 18:46:00,
2013-07-24 14:01:00,79.5,69.7,29.73,South,180,2.2,-999.0,72,-99.99,,,0.01,Acu-Link.com,2013-07-24 19:01:00,
2013-07-24 14:16:00,80.2,70.7,29.74,ENE,67,3.7,-999.0,73,-99.99,,,0.01,Acu-Link.com,2013-07-24 19:16:00,
2013-07-24 14:46:00,81.1,72.0,29.73,NW,315,5.3,-999.0,74,-99.99,,,0.01,Acu-Link.com,2013-07-24 19:46:00,
2013-07-24 15:17:00,81.0,71.1,29.73,NNE,22,2.7,-999.0,72,-99.99,,,0.01,Acu-Link.com,2013-07-24 20:17:00,
2013-07-24 15:32:00,80.1,70.6,29.73,NE,45,2.7,-999.0,73,-99.99,,,0.01,Acu-Link.com,2013-07-24 20:32:00,
2013-07-24 15:47:00,79.3,70.3,29.73,NW,315,1.1,-999.0,74,-99.99,,,0.01,Acu-Link.com,2013-07-24 20:47:00,
2013-07-24 16:17:00,80.6,71.5,29.73,East,90,1.1,-999.0,74,-99.99,,,0.01,Acu-Link.com,2013-07-24 21:17:00,
2013-07-24 16:32:00,80.8,71.7,29.72,North,0,2.2,-999.0,74,-99.99,,,0.01,Acu-Link.com,2013-07-24 21:32:00,
2013-07-24 16:47:00,80.6,71.5,29.71,SW,225,0.0,-999.0,74,-99.99,,,0.01,Acu-Link.com,2013-07-24 21:47:00,
2013-07-24 17:02:00,81.1,72.0,29.71,NE,45,2.2,-999.0,74,-99.99,,,0.01,Acu-Link.com,2013-07-24 22:02:00,
2013-07-24 17:17:00,82.0,72.5,29.70,West,270,1.7,-999.0,73,-99.99,,,0.01,Acu-Link.com,2013-07-24 22:17:00,
2013-07-24 17:33:00,83.3,72.9,29.70,WSW,247,3.2,-999.0,71,-99.99,,,0.01,Acu-Link.com,2013-07-24 22:33:00,
2013-07-24 17:48:00,84.4,73.5,29.70,East,90,0.0,-999.0,70,-99.99,,,0.01,Acu-Link.com,2013-07-24 22:48:00,
2013-07-24 18:03:00,84.0,73.1,29.72,NNE,22,2.2,-999.0,70,-99.99,,,0.01,Acu-Link.com,2013-07-24 23:03:00,
2013-07-24 18:18:00,84.4,73.5,29.71,West,270,2.7,-999.0,70,-99.99,,,0.01,Acu-Link.com,2013-07-24 23:18:00,
2013-07-24 18:34:00,85.3,73.5,29.70,WSW,247,2.2,-999.0,68,-99.99,,,0.01,Acu-Link.com,2013-07-24 23:34:00,
2013-07-24 18:49:00,86.2,73.9,29.71,NW,315,3.2,-999.0,67,-99.99,,,0.01,Acu-Link.com,2013-07-24 23:49:00,
2013-07-24 19:04:00,85.1,73.3,29.72,NW,315,3.7,-999.0,68,-99.99,,,0.01,Acu-Link.com,2013-07-25 00:04:00,
2013-07-24 19:19:00,83.1,72.3,29.72,NNE,22,1.7,-999.0,70,-99.99,,,0.01,Acu-Link.com,2013-07-25 00:19:00,
2013-07-24 19:34:00,81.5,71.6,29.71,NW,315,0.0,-999.0,72,-99.99,,,0.01,Acu-Link.com,2013-07-25 00:34:00,
2013-07-24 19:49:00,80.4,70.9,29.72,NE,45,0.0,-999.0,73,-99.99,,,0.01,Acu-Link.com,2013-07-25 00:49:00,
2013-07-24 20:04:00,79.5,70.1,29.72,West,270,0.0,-999.0,73,-99.99,,,0.01,Acu-Link.com,2013-07-25 01:04:00,
2013-07-24 20:20:00,79.0,69.6,29.73,WNW,292,1.7,-999.0,73,-99.99,,,0.01,Acu-Link.com,2013-07-25 01:20:00,
2013-07-24 20:35:00,78.6,69.2,29.72,NNE,22,2.2,-999.0,73,-99.99,,,0.01,Acu-Link.com,2013-07-25 01:35:00,
2013-07-24 20:50:00,78.6,69.2,29.74,ESE,112,3.2,-999.0,73,-99.99,,,0.01,Acu-Link.com,2013-07-25 01:50:00,
2013-07-24 21:05:00,78.3,68.9,29.74,NNW,337,3.7,-999.0,73,-99.99,,,0.01,Acu-Link.com,2013-07-25 02:05:00,
2013-07-24 21:20:00,78.1,69.1,29.75,NW,315,2.2,-999.0,74,-99.99,,,0.01,Acu-Link.com,2013-07-25 02:20:00,
2013-07-24 21:35:00,77.7,68.7,29.76,NNW,337,1.7,-999.0,74,-99.99,,,0.01,Acu-Link.com,2013-07-25 02:35:00,
2013-07-24 21:50:00,77.5,68.5,29.77,NW,315,2.2,-999.0,74,-99.99,,,0.01,Acu-Link.com,2013-07-25 02:50:00,
2013-07-24 22:05:00,77.0,68.1,29.78,NW,315,2.7,-999.0,74,-99.99,,,0.01,Acu-Link.com,2013-07-25 03:05:00,
2013-07-24 22:20:00,76.3,67.4,29.78,SE,135,1.7,-999.0,74,-99.99,,,0.01,Acu-Link.com,2013-07-25 03:20:00,
2013-07-24 22:35:00,75.9,67.0,29.78,North,0,0.0,-999.0,74,-99.99,,,0.01,Acu-Link.com,2013-07-25 03:35:00,
2013-07-24 22:51:00,75.7,66.8,29.79,NNW,337,1.7,-999.0,74,-99.99,,,0.01,Acu-Link.com,2013-07-25 03:51:00,
2013-07-24 23:06:00,75.7,66.8,29.79,ENE,67,2.2,-999.0,74,-99.99,,,0.01,Acu-Link.com,2013-07-25 04:06:00,
2013-07-24 23:21:00,75.6,66.7,29.80,NNW,337,1.7,-999.0,74,-99.99,,,0.01,Acu-Link.com,2013-07-25 04:21:00,
2013-07-24 23:51:00,74.8,65.9,29.79,NNW,337,3.2,-999.0,74,-99.99,,,0.01,Acu-Link.com,2013-07-25 04:51:00,